Terminal Aerodrome Forecast
Issued by NWS Louisville, KY

Home | Current Version | Previous Version | Text Only | Print | Product List | Glossary On
Versions: 1 2 3 4 5 6 7 8 9 10 11 12 13 14 15 16 17 18
259
FTUS43 KLMK 222320
TAFBWG
TAF
KBWG 222320Z 2300/2324 VRB03KT P6SM FEW250
     FM230800 00000KT 5SM BR FEW250
     FM231000 00000KT 2SM BR FEW250
     FM231300 07004KT P6SM FEW250=

USA.gov is the U.S. government's official web portal to all federal, state and local government web resources and services.